Terminal Aerodrome Forecast
Issued by NWS Buffalo, NY

Home | Current Version | Previous Version | Text Only | Print | Product List | Glossary On
Versions: 1 2 3 4 5 6 7 8 9 10 11 12 13 14 15 16 17 18 19 20 21 22 23 24 25 26
000
FTUS41 KBUF 161740
TAFBUF
TAF
KBUF 161740Z 1618/1718 23010KT P6SM BKN250
     FM170000 19004KT P6SM BKN070
     FM170600 12004KT P6SM VCSH OVC045
     FM170900 10005KT 5SM -RA OVC040
     FM171400 12010KT 2SM -RA OVC015=

USA.gov is the U.S. government's official web portal to all federal, state and local government web resources and services.